createdAt,value
2023-05-10T00:00:51.139Z,74.70
2023-05-10T00:03:20.308Z,74.59
2023-05-10T00:05:48.470Z,74.67
2023-05-10T00:08:17.033Z,75.39
2023-05-10T00:10:45.060Z,76.05
2023-05-10T00:13:13.482Z,76.42
2023-05-10T00:15:41.387Z,77.54
2023-05-10T00:18:09.646Z,78.04
2023-05-10T00:20:37.959Z,78.12
2023-05-10T00:23:06.157Z,78.61
2023-05-10T00:25:34.051Z,80.11
2023-05-10T00:28:03.434Z,80.07
2023-05-10T00:30:31.567Z,81.67
2023-05-10T00:33:02.353Z,82.11
2023-05-10T00:35:30.715Z,82.04
2023-05-10T00:37:59.151Z,82.27
2023-05-10T00:40:27.554Z,84.07
2023-05-10T00:42:55.809Z,84.26
2023-05-10T00:45:24.709Z,85.93
2023-05-10T00:47:56.428Z,86.55
2023-05-10T00:50:25.124Z,88.19
2023-05-10T00:52:53.567Z,88.24
2023-05-10T00:55:22.256Z,88.19
2023-05-10T00:57:50.579Z,87.41
2023-05-10T01:00:19.730Z,87.58
2023-05-10T01:02:48.743Z,88.01
2023-05-10T01:05:17.433Z,88.16
2023-05-10T01:07:45.692Z,87.33
2023-05-10T01:10:14.500Z,87.92
2023-05-10T01:12:45.117Z,89.50
2023-05-10T01:15:14.659Z,91.46
2023-05-10T01:17:44.428Z,94.39
2023-05-10T01:20:14.014Z,95.11
2023-05-10T01:23:00.155Z,95.55
2023-05-10T01:25:50.199Z,95.72
2023-05-10T01:28:39.833Z,96.66
2023-05-10T01:31:35.259Z,97.85
2023-05-10T01:34:27.276Z,97.60
2023-05-10T01:37:17.673Z,96.86
2023-05-10T01:39:58.443Z,98.68
2023-05-10T01:42:28.810Z,97.59
2023-05-10T01:45:16.542Z,96.35
2023-05-10T01:48:07.029Z,96.62
2023-05-10T01:50:37.361Z,97.51
2023-05-10T01:53:08.909Z,99.75
2023-05-10T01:55:48.577Z,100.00
2023-05-10T01:58:26.987Z,100.00
2023-05-10T02:01:02.308Z,100.00
2023-05-10T02:03:34.817Z,100.00
2023-05-10T02:06:03.582Z,99.80
2023-05-10T02:08:32.363Z,99.66
2023-05-10T02:11:00.772Z,97.38
2023-05-10T02:13:29.928Z,96.94
2023-05-10T02:15:58.931Z,97.63
2023-05-10T02:18:28.929Z,97.83
2023-05-10T02:20:57.496Z,97.04
2023-05-10T02:23:26.668Z,95.52
2023-05-10T02:25:56.647Z,94.49
2023-05-10T02:28:28.397Z,94.31
2023-05-10T02:30:56.956Z,94.81
2023-05-10T02:33:28.559Z,95.67
2023-05-10T02:35:57.773Z,94.80
2023-05-10T02:38:26.577Z,94.08
2023-05-10T02:40:55.901Z,93.21
2023-05-10T02:43:24.592Z,91.50
2023-05-10T02:45:52.848Z,89.92
2023-05-10T02:48:20.761Z,88.56
2023-05-10T02:50:52.891Z,85.89
2023-05-10T02:53:26.957Z,82.85
2023-05-10T02:55:57.097Z,81.14
2023-05-10T02:58:25.382Z,79.34
2023-05-10T03:00:53.990Z,78.62
2023-05-10T03:03:24.483Z,78.89
2023-05-10T03:05:55.071Z,78.94
2023-05-10T03:08:24.611Z,79.04
2023-05-10T03:11:19.735Z,80.85
2023-05-10T03:14:12.818Z,82.94
2023-05-10T03:16:48.682Z,83.11
2023-05-10T03:19:27.366Z,84.57
2023-05-10T03:22:01.235Z,84.23
2023-05-10T03:24:29.790Z,79.72
2023-05-10T03:27:05.733Z,76.11
2023-05-10T03:29:34.435Z,75.09
2023-05-10T03:32:02.657Z,72.85
2023-05-10T03:34:32.510Z,70.19
2023-05-10T03:37:00.849Z,67.95
2023-05-10T03:39:29.098Z,65.46
2023-05-10T03:42:00.160Z,61.85
2023-05-10T03:44:28.534Z,57.84
2023-05-10T03:46:58.357Z,53.50
2023-05-10T03:49:26.603Z,50.67
2023-05-10T03:51:54.872Z,46.20
2023-05-10T03:54:22.844Z,41.05
2023-05-10T03:56:51.011Z,38.30
2023-05-10T03:59:19.536Z,36.80
2023-05-10T04:01:47.796Z,34.81
2023-05-10T04:04:16.209Z,34.84
2023-05-10T04:06:44.397Z,33.31
2023-05-10T04:09:12.447Z,32.84
2023-05-10T04:11:40.737Z,31.19
2023-05-10T04:14:09.160Z,30.23
2023-05-10T04:16:40.109Z,30.81
2023-05-10T04:19:08.190Z,30.91
2023-05-10T04:21:36.419Z,30.65
2023-05-10T04:24:08.052Z,31.03
2023-05-10T04:26:36.528Z,31.20
2023-05-10T04:29:04.516Z,31.71
2023-05-10T04:31:32.726Z,31.52
2023-05-10T04:34:00.971Z,32.87
2023-05-10T04:36:29.244Z,32.24
2023-05-10T04:38:57.615Z,31.27
2023-05-10T04:41:26.889Z,30.04
2023-05-10T04:43:55.201Z,29.96
2023-05-10T04:46:26.137Z,30.98
2023-05-10T04:48:54.197Z,32.52
2023-05-10T04:51:22.352Z,32.81
2023-05-10T04:54:01.558Z,32.46
2023-05-10T04:56:33.134Z,30.52
2023-05-10T04:59:01.481Z,28.14
2023-05-10T05:01:29.780Z,27.10
2023-05-10T05:03:58.150Z,27.44
2023-05-10T05:06:29.618Z,28.11
2023-05-10T05:08:58.051Z,28.94
2023-05-10T05:11:27.018Z,28.70
2023-05-10T05:13:55.132Z,27.62
2023-05-10T05:16:23.870Z,26.95
2023-05-10T05:18:52.363Z,27.33
2023-05-10T05:21:21.182Z,27.35
2023-05-10T05:23:49.171Z,27.67
2023-05-10T05:26:17.275Z,27.28
2023-05-10T05:28:45.626Z,27.28
2023-05-10T05:31:13.852Z,28.51
2023-05-10T05:33:42.265Z,29.18
2023-05-10T05:36:10.704Z,29.46
2023-05-10T05:38:38.808Z,28.82
2023-05-10T05:41:06.844Z,29.78
2023-05-10T05:43:36.699Z,29.77
2023-05-10T05:46:10.407Z,29.55
2023-05-10T05:48:39.035Z,29.58
2023-05-10T05:51:07.650Z,29.12
2023-05-10T05:53:35.924Z,29.60
2023-05-10T05:56:04.961Z,30.01
2023-05-10T05:58:33.091Z,29.45
2023-05-10T06:01:01.096Z,29.53
2023-05-10T06:03:29.342Z,30.04
2023-05-10T06:05:57.807Z,31.53
2023-05-10T06:08:27.267Z,31.48
2023-05-10T06:10:55.422Z,30.27
2023-05-10T06:13:23.984Z,30.04
2023-05-10T06:15:52.448Z,30.77
2023-05-10T06:18:23.845Z,29.38
2023-05-10T06:20:52.965Z,27.16
2023-05-10T06:23:21.264Z,25.97
2023-05-10T06:25:53.470Z,25.99
2023-05-10T06:28:21.937Z,25.64
2023-05-10T06:30:50.358Z,25.66
2023-05-10T06:33:18.578Z,26.10
2023-05-10T06:35:46.790Z,26.58
2023-05-10T06:38:15.067Z,27.37
2023-05-10T06:40:44.160Z,27.09
2023-05-10T06:43:12.424Z,27.17
2023-05-10T06:45:42.758Z,27.10
2023-05-10T06:48:10.814Z,28.37
2023-05-10T06:50:40.195Z,29.44
2023-05-10T06:53:09.187Z,30.42
2023-05-10T06:55:38.311Z,29.40
2023-05-10T06:58:07.646Z,30.67
2023-05-10T07:00:36.158Z,31.35
2023-05-10T07:03:04.625Z,32.00
2023-05-10T07:05:33.306Z,32.36
2023-05-10T07:08:01.706Z,33.09
2023-05-10T07:10:29.728Z,32.78
2023-05-10T07:12:57.821Z,32.17
2023-05-10T07:15:25.995Z,31.81
2023-05-10T07:17:54.121Z,32.76
2023-05-10T07:20:22.413Z,33.04
2023-05-10T07:22:50.758Z,33.60
2023-05-10T07:25:19.875Z,34.18
2023-05-10T07:27:49.778Z,33.88
2023-05-10T07:30:17.829Z,34.61
2023-05-10T07:32:47.019Z,34.58
2023-05-10T07:35:17.007Z,33.96
2023-05-10T07:37:45.190Z,33.22
2023-05-10T07:40:13.628Z,33.62
2023-05-10T07:42:49.353Z,34.05
2023-05-10T07:45:18.051Z,33.85
2023-05-10T07:47:46.093Z,33.30
2023-05-10T07:50:14.573Z,33.58
2023-05-10T07:52:43.390Z,33.54
2023-05-10T07:55:12.157Z,33.12
2023-05-10T07:57:40.921Z,32.96
2023-05-10T08:00:09.279Z,32.89
2023-05-10T08:02:37.916Z,32.73
2023-05-10T08:05:08.397Z,31.10
2023-05-10T08:07:37.682Z,31.89
2023-05-10T08:10:06.910Z,33.07
2023-05-10T08:12:35.171Z,33.04
2023-05-10T08:15:04.111Z,33.56
2023-05-10T08:17:33.952Z,33.94
2023-05-10T08:20:02.804Z,34.83
2023-05-10T08:22:32.133Z,35.09
2023-05-10T08:25:00.219Z,36.24
2023-05-10T08:27:28.643Z,35.60
2023-05-10T08:29:59.708Z,35.48
2023-05-10T08:32:28.108Z,35.88
2023-05-10T08:34:58.231Z,35.59
2023-05-10T08:37:27.412Z,34.90
2023-05-10T08:39:55.531Z,34.86
2023-05-10T08:42:24.479Z,35.20
2023-05-10T08:44:53.484Z,34.87
2023-05-10T08:47:21.953Z,34.97
2023-05-10T08:49:52.435Z,35.38
2023-05-10T08:52:21.629Z,35.76
2023-05-10T08:54:50.322Z,36.61
2023-05-10T08:57:18.732Z,36.32
2023-05-10T08:59:48.086Z,36.48
2023-05-10T09:02:18.581Z,36.24
2023-05-10T09:04:47.134Z,35.79
2023-05-10T09:07:15.737Z,35.39
2023-05-10T09:09:45.000Z,35.38
2023-05-10T09:12:14.009Z,35.30
2023-05-10T09:14:46.393Z,35.22
2023-05-10T09:17:14.786Z,35.46
2023-05-10T09:19:42.903Z,34.84
2023-05-10T09:22:11.774Z,34.25
2023-05-10T09:24:44.067Z,33.14
2023-05-10T09:27:12.842Z,33.46
2023-05-10T09:29:43.860Z,33.87
2023-05-10T09:32:13.774Z,33.48
2023-05-10T09:34:42.613Z,33.12
2023-05-10T09:37:10.989Z,33.20
2023-05-10T09:39:39.420Z,33.55
2023-05-10T09:42:10.068Z,34.06
2023-05-10T09:44:39.790Z,34.07
2023-05-10T09:47:08.656Z,34.11
2023-05-10T09:49:37.137Z,34.11
2023-05-10T09:52:08.950Z,34.46
2023-05-10T09:54:38.686Z,34.55
2023-05-10T09:57:07.998Z,34.29
2023-05-10T09:59:36.818Z,33.95
2023-05-10T10:02:05.218Z,35.22
2023-05-10T10:04:34.085Z,35.77
2023-05-10T10:07:05.003Z,35.75
2023-05-10T10:09:34.404Z,36.57
2023-05-10T10:12:06.180Z,37.39
2023-05-10T10:14:35.881Z,36.89
2023-05-10T10:17:08.335Z,36.89
2023-05-10T10:19:38.178Z,35.85
2023-05-10T10:22:07.574Z,35.19
2023-05-10T10:24:35.705Z,34.70
2023-05-10T10:27:31.657Z,34.50
2023-05-10T10:30:23.991Z,34.80
2023-05-10T10:33:10.436Z,35.45
2023-05-10T10:35:48.888Z,37.74
2023-05-10T10:38:19.588Z,40.44
2023-05-10T10:40:49.498Z,39.25
2023-05-10T10:43:28.411Z,38.70
2023-05-10T10:46:21.814Z,38.01
2023-05-10T10:48:52.900Z,36.30
2023-05-10T10:51:21.329Z,35.53
2023-05-10T10:53:50.439Z,35.96
2023-05-10T10:56:24.953Z,34.73
2023-05-10T10:58:54.952Z,35.16
2023-05-10T11:01:23.505Z,35.00
2023-05-10T11:04:00.798Z,32.85
2023-05-10T11:06:39.675Z,31.57
2023-05-10T11:09:12.867Z,31.62
2023-05-10T11:11:53.445Z,31.59
2023-05-10T11:14:23.891Z,31.91
2023-05-10T11:16:52.296Z,31.02
2023-05-10T11:19:23.725Z,30.21
2023-05-10T11:22:14.456Z,30.62
2023-05-10T11:24:57.946Z,29.88
2023-05-10T11:27:26.458Z,29.38
2023-05-10T11:29:55.010Z,29.40
2023-05-10T11:32:23.888Z,31.18
2023-05-10T11:34:53.334Z,32.21
2023-05-10T11:37:21.824Z,32.54
2023-05-10T11:39:49.919Z,34.02
2023-05-10T11:42:18.534Z,36.49
2023-05-10T11:44:47.769Z,37.19
2023-05-10T11:47:16.120Z,37.95
2023-05-10T11:49:48.038Z,37.59
2023-05-10T11:52:16.292Z,39.11
2023-05-10T11:54:54.574Z,41.68
2023-05-10T11:57:28.054Z,39.99
2023-05-10T11:59:57.630Z,39.70
2023-05-10T12:02:26.545Z,38.19
2023-05-10T12:04:56.567Z,37.31
2023-05-10T12:07:24.840Z,37.94
2023-05-10T12:10:09.673Z,35.55
2023-05-10T12:12:46.142Z,33.45
2023-05-10T12:15:20.920Z,32.84
2023-05-10T12:17:49.897Z,32.38
2023-05-10T12:20:30.311Z,31.60
2023-05-10T12:23:00.789Z,31.83
2023-05-10T12:25:36.971Z,31.95
2023-05-10T12:30:55.137Z,30.76
2023-05-10T12:33:23.750Z,31.22
2023-05-10T12:35:54.027Z,32.16
2023-05-10T12:38:40.392Z,32.08
2023-05-10T12:41:10.291Z,32.58
2023-05-10T12:43:40.098Z,33.83
2023-05-10T12:46:17.474Z,35.63
2023-05-10T12:48:47.488Z,39.91
2023-05-10T12:51:18.733Z,42.44
2023-05-10T12:53:49.751Z,44.35
2023-05-10T12:56:20.252Z,46.63
2023-05-10T12:58:49.329Z,47.49
2023-05-10T13:01:17.960Z,48.08
2023-05-10T13:03:46.158Z,47.67
2023-05-10T13:06:15.299Z,48.03
2023-05-10T13:08:43.617Z,49.62
2023-05-10T13:11:11.944Z,47.99
2023-05-10T13:13:39.970Z,48.16
2023-05-10T13:16:08.786Z,46.80
2023-05-10T13:18:37.823Z,45.97
2023-05-10T13:21:06.785Z,43.07
2023-05-10T13:24:01.709Z,42.73
2023-05-10T13:26:30.266Z,42.62
2023-05-10T13:28:58.287Z,42.95
2023-05-10T13:31:26.511Z,42.39
2023-05-10T13:33:54.853Z,42.11
2023-05-10T13:36:24.103Z,42.38
2023-05-10T13:38:52.061Z,41.43
2023-05-10T13:41:20.334Z,40.70
2023-05-10T13:43:50.282Z,39.58
2023-05-10T13:46:18.720Z,38.47
2023-05-10T13:48:47.728Z,37.34
2023-05-10T13:51:16.297Z,35.86
2023-05-10T13:53:44.656Z,35.63
2023-05-10T13:56:12.851Z,35.37
2023-05-10T13:58:41.530Z,35.01
2023-05-10T14:01:09.731Z,34.39
2023-05-10T14:03:38.357Z,34.14
2023-05-10T14:06:06.379Z,35.04
2023-05-10T14:08:36.769Z,34.73
2023-05-10T14:11:05.151Z,34.58
2023-05-10T14:13:33.215Z,34.25
2023-05-10T14:16:01.947Z,34.56
2023-05-10T14:18:30.570Z,34.23
2023-05-10T14:20:58.979Z,34.37
2023-05-10T14:23:27.791Z,33.81
2023-05-10T14:25:56.737Z,34.58
2023-05-10T14:28:26.092Z,35.06
2023-05-10T14:30:54.356Z,34.09
2023-05-10T14:33:22.368Z,34.79
2023-05-10T14:35:50.936Z,34.89
2023-05-10T14:38:19.236Z,34.46
2023-05-10T14:40:47.628Z,34.10
2023-05-10T14:43:15.607Z,34.40
2023-05-10T14:45:44.505Z,34.53
2023-05-10T14:48:16.601Z,34.56
2023-05-10T14:50:45.981Z,34.57
2023-05-10T14:53:14.360Z,34.77
2023-05-10T14:55:42.393Z,34.57
2023-05-10T14:58:10.391Z,34.69
2023-05-10T15:00:39.172Z,34.76
2023-05-10T15:03:08.058Z,34.49
2023-05-10T15:05:39.272Z,34.61
2023-05-10T15:08:07.363Z,34.87
2023-05-10T15:10:36.596Z,34.87
2023-05-10T15:13:05.687Z,34.93
2023-05-10T15:15:33.757Z,34.54
2023-05-10T15:18:02.075Z,35.03
2023-05-10T15:20:30.453Z,35.05
2023-05-10T15:22:58.788Z,35.00
2023-05-10T15:25:27.260Z,35.46
2023-05-10T15:27:55.728Z,35.80
2023-05-10T15:30:23.904Z,35.85
2023-05-10T15:32:52.062Z,35.25
2023-05-10T15:35:20.969Z,35.10
2023-05-10T15:37:50.876Z,35.25
2023-05-10T15:40:18.873Z,35.33
2023-05-10T15:42:46.812Z,35.93
2023-05-10T15:45:14.878Z,36.15
2023-05-10T15:47:43.268Z,36.31
2023-05-10T15:50:12.546Z,36.33
2023-05-10T15:52:40.744Z,36.60
2023-05-10T15:55:13.400Z,36.38
2023-05-10T15:57:42.818Z,35.93
2023-05-10T16:00:14.179Z,36.12
2023-05-10T16:02:42.939Z,35.59
2023-05-10T16:05:11.349Z,35.57
2023-05-10T16:07:42.376Z,36.26
2023-05-10T16:10:11.693Z,36.43
2023-05-10T16:12:40.324Z,36.36
2023-05-10T16:15:09.716Z,36.15
2023-05-10T16:17:38.339Z,35.79
2023-05-10T16:20:07.303Z,35.54
2023-05-10T16:22:36.156Z,35.76
2023-05-10T16:25:04.646Z,35.46
2023-05-10T16:27:33.889Z,35.48
2023-05-10T16:30:02.267Z,35.75
2023-05-10T16:32:31.049Z,36.55
2023-05-10T16:35:00.550Z,37.08
2023-05-10T16:37:29.164Z,38.25
2023-05-10T16:39:57.836Z,38.84
2023-05-10T16:42:26.504Z,39.13
2023-05-10T16:44:55.803Z,39.34
2023-05-10T16:47:27.037Z,41.32
2023-05-10T16:49:55.770Z,41.80
2023-05-10T16:52:24.303Z,42.58
2023-05-10T16:54:52.974Z,43.05
2023-05-10T16:57:21.260Z,43.55
2023-05-10T16:59:58.476Z,44.41
2023-05-10T17:02:27.684Z,45.31
2023-05-10T17:04:59.182Z,46.06
2023-05-10T17:07:29.715Z,46.34
2023-05-10T17:09:59.429Z,46.36
2023-05-10T17:12:27.663Z,46.98
2023-05-10T17:14:56.075Z,47.53
2023-05-10T17:17:24.389Z,47.77
2023-05-10T17:19:52.478Z,48.62
2023-05-10T17:22:21.160Z,49.52
2023-05-10T17:24:49.263Z,49.78
2023-05-10T17:27:20.071Z,49.77
2023-05-10T17:29:48.291Z,50.35
2023-05-10T17:32:19.322Z,51.10
2023-05-10T17:34:52.188Z,51.98
2023-05-10T17:37:20.611Z,52.62
2023-05-10T17:39:48.902Z,53.94
2023-05-10T17:42:19.341Z,55.32
2023-05-10T17:44:47.469Z,55.76
2023-05-10T17:47:15.400Z,55.64
2023-05-10T17:49:44.125Z,56.51
2023-05-10T17:52:12.558Z,56.77
2023-05-10T17:54:40.714Z,57.88
2023-05-10T17:57:08.759Z,58.19
2023-05-10T17:59:37.156Z,58.48
2023-05-10T18:02:05.390Z,59.59
2023-05-10T18:04:33.782Z,60.76
2023-05-10T18:07:06.644Z,61.71
2023-05-10T18:09:34.975Z,63.64
2023-05-10T18:12:04.064Z,64.26
2023-05-10T18:14:40.452Z,65.03
2023-05-10T18:17:10.348Z,65.75
2023-05-10T18:19:39.050Z,65.28
2023-05-10T18:22:10.474Z,65.73
2023-05-10T18:24:40.177Z,67.45
2023-05-10T18:27:09.570Z,67.14
2023-05-10T18:29:37.851Z,67.20
2023-05-10T18:32:07.172Z,67.09
2023-05-10T18:34:35.856Z,67.86
2023-05-10T18:37:08.031Z,67.78
2023-05-10T18:39:37.942Z,68.74
2023-05-10T18:42:06.302Z,69.01
2023-05-10T18:44:35.273Z,69.83
2023-05-10T18:47:03.860Z,71.00
2023-05-10T18:49:32.465Z,71.41
2023-05-10T18:52:00.496Z,71.52
2023-05-10T18:54:29.419Z,73.01
2023-05-10T18:56:59.015Z,74.50
2023-05-10T18:59:31.460Z,74.79
2023-05-10T19:01:59.483Z,74.28
2023-05-10T19:04:27.719Z,74.36
2023-05-10T19:06:56.383Z,74.23
2023-05-10T19:09:28.214Z,74.79
2023-05-10T19:11:56.395Z,76.27
2023-05-10T19:14:25.727Z,76.89
2023-05-10T19:16:54.784Z,77.18
2023-05-10T19:19:23.281Z,76.85
2023-05-10T19:21:51.508Z,76.10
2023-05-10T19:24:23.816Z,75.23
2023-05-10T19:26:52.676Z,73.61
2023-05-10T19:29:23.670Z,71.62
2023-05-10T19:31:52.905Z,69.92
2023-05-10T19:34:21.267Z,68.66
2023-05-10T19:36:49.368Z,67.21
2023-05-10T19:39:17.906Z,67.41
2023-05-10T19:41:48.128Z,67.94
2023-05-10T19:44:16.429Z,68.88
2023-05-10T19:46:44.729Z,68.72
2023-05-10T19:49:12.877Z,68.77
2023-05-10T19:51:41.608Z,68.45
2023-05-10T19:54:10.454Z,67.52
2023-05-10T19:56:38.665Z,66.03
2023-05-10T19:59:08.276Z,64.94
2023-05-10T20:01:36.781Z,64.31
2023-05-10T20:04:05.475Z,62.97
2023-05-10T20:06:34.099Z,60.42
2023-05-10T20:09:02.594Z,59.58
2023-05-10T20:11:30.587Z,60.04
2023-05-10T20:13:59.167Z,59.87
2023-05-10T20:16:27.578Z,60.10
2023-05-10T20:18:56.282Z,59.42
2023-05-10T20:21:26.826Z,59.28
2023-05-10T20:23:57.151Z,58.07
2023-05-10T20:26:25.290Z,57.17
2023-05-10T20:28:53.752Z,56.60
2023-05-10T20:31:21.935Z,56.48
2023-05-10T20:33:49.971Z,56.70
2023-05-10T20:36:18.083Z,55.88
2023-05-10T20:38:46.385Z,54.21
2023-05-10T20:41:14.702Z,53.85
2023-05-10T20:43:43.151Z,53.75
2023-05-10T20:46:11.578Z,54.42
2023-05-10T20:48:39.748Z,55.58
2023-05-10T20:51:07.952Z,56.47
2023-05-10T20:53:36.734Z,56.20
2023-05-10T20:56:05.100Z,55.68
2023-05-10T20:58:34.098Z,56.36
2023-05-10T21:01:03.313Z,56.71
2023-05-10T21:03:31.583Z,56.46
2023-05-10T21:05:59.935Z,55.62
2023-05-10T21:08:29.082Z,55.07
2023-05-10T21:10:57.824Z,55.24
2023-05-10T21:13:30.323Z,55.00
2023-05-10T21:15:58.926Z,55.27
2023-05-10T21:18:28.279Z,55.10
2023-05-10T21:20:56.606Z,54.46
2023-05-10T21:23:27.352Z,53.59
2023-05-10T21:25:56.212Z,53.75
2023-05-10T21:28:25.023Z,53.73
2023-05-10T21:30:53.322Z,53.98
2023-05-10T21:33:21.501Z,54.00
2023-05-10T21:35:49.735Z,54.13
2023-05-10T21:38:17.718Z,53.77
2023-05-10T21:40:45.642Z,53.21
2023-05-10T21:43:13.972Z,53.72
2023-05-10T21:45:42.473Z,53.57
2023-05-10T21:48:10.550Z,53.80
2023-05-10T21:50:38.532Z,54.61
2023-05-10T21:53:06.731Z,54.36
2023-05-10T21:55:37.538Z,53.03
2023-05-10T21:58:06.629Z,52.60
2023-05-10T22:00:36.278Z,52.19
2023-05-10T22:03:06.947Z,52.59
2023-05-10T22:05:35.215Z,53.00
2023-05-10T22:08:03.624Z,54.05
2023-05-10T22:10:32.134Z,54.78
2023-05-10T22:13:02.583Z,55.38
2023-05-10T22:15:36.325Z,56.50
2023-05-10T22:18:05.775Z,57.13
2023-05-10T22:20:34.159Z,57.41
2023-05-10T22:23:02.429Z,56.81
2023-05-10T22:25:31.074Z,56.62
2023-05-10T22:27:59.522Z,57.11
2023-05-10T22:30:32.799Z,56.58
2023-05-10T22:33:01.150Z,55.98
2023-05-10T22:35:29.327Z,55.83
2023-05-10T22:37:57.870Z,56.48
2023-05-10T22:40:25.775Z,57.65
2023-05-10T22:42:56.953Z,58.53
2023-05-10T22:45:24.848Z,57.91
2023-05-10T22:47:53.358Z,58.19
2023-05-10T22:50:22.315Z,59.10
2023-05-10T22:52:50.723Z,60.39
2023-05-10T22:55:18.861Z,59.50
2023-05-10T22:57:47.245Z,60.08
2023-05-10T23:00:16.265Z,59.92
2023-05-10T23:02:44.896Z,61.13
2023-05-10T23:05:19.956Z,61.82
2023-05-10T23:07:53.790Z,63.06
2023-05-10T23:10:22.021Z,63.60
2023-05-10T23:12:50.280Z,63.60
2023-05-10T23:15:18.268Z,63.53
2023-05-10T23:17:46.757Z,63.76
2023-05-10T23:20:15.001Z,63.55
2023-05-10T23:22:43.723Z,63.61
2023-05-10T23:25:14.818Z,64.02
2023-05-10T23:27:43.171Z,63.10
2023-05-10T23:30:11.784Z,61.57
2023-05-10T23:32:39.809Z,61.31
2023-05-10T23:35:08.400Z,60.33
2023-05-10T23:37:37.287Z,59.32
2023-05-10T23:40:08.127Z,58.88
2023-05-10T23:42:36.697Z,58.11
2023-05-10T23:45:05.042Z,58.82
2023-05-10T23:47:34.393Z,59.58
2023-05-10T23:50:02.578Z,59.27
2023-05-10T23:52:31.465Z,59.81
2023-05-10T23:55:02.259Z,59.65
2023-05-10T23:57:30.870Z,59.84
2023-05-10T23:59:59.300Z,60.00
